sensor_id;sensor_type;location;lat;lon;timestamp;pressure;altitude;pressure_sealevel;temperature;humidity
48614;BME280;34408;51.426;5.444;2022-12-20T00:00:57;101335.59;;;9.16;70.09
48614;BME280;34408;51.426;5.444;2022-12-20T00:03:25;101347.75;;;9.18;70.17
48614;BME280;34408;51.426;5.444;2022-12-20T00:05:54;101337.25;;;9.17;69.64
48614;BME280;34408;51.426;5.444;2022-12-20T00:08:22;101339.09;;;9.16;69.77
48614;BME280;34408;51.426;5.444;2022-12-20T00:10:50;101340.13;;;9.15;69.93
48614;BME280;34408;51.426;5.444;2022-12-20T00:13:18;101340.75;;;9.17;70.07
48614;BME280;34408;51.426;5.444;2022-12-20T00:15:45;101345.09;;;9.18;70.55
48614;BME280;34408;51.426;5.444;2022-12-20T00:18:13;101336.22;;;9.18;70.51
48614;BME280;34408;51.426;5.444;2022-12-20T00:20:41;101323.63;;;9.18;69.81
48614;BME280;34408;51.426;5.444;2022-12-20T00:23:10;101330.84;;;9.18;70.32
48614;BME280;34408;51.426;5.444;2022-12-20T00:25:38;101320.94;;;9.18;70.17
48614;BME280;34408;51.426;5.444;2022-12-20T00:28:06;101324.66;;;9.17;69.89
48614;BME280;34408;51.426;5.444;2022-12-20T00:30:34;101313.09;;;9.17;70.35
48614;BME280;34408;51.426;5.444;2022-12-20T00:33:02;101324.66;;;9.17;70.28
48614;BME280;34408;51.426;5.444;2022-12-20T00:35:30;101323.63;;;9.18;70.37
48614;BME280;34408;51.426;5.444;2022-12-20T00:37:57;101315.38;;;9.20;70.22
48614;BME280;34408;51.426;5.444;2022-12-20T00:40:26;101310.84;;;9.20;70.29
48614;BME280;34408;51.426;5.444;2022-12-20T00:42:54;101306.50;;;9.19;70.01
48614;BME280;34408;51.426;5.444;2022-12-20T00:45:22;101303.63;;;9.21;70.02
48614;BME280;34408;51.426;5.444;2022-12-20T00:47:49;101293.94;;;9.20;69.88
48614;BME280;34408;51.426;5.444;2022-12-20T00:50:17;101294.75;;;9.20;70.32
48614;BME280;34408;51.426;5.444;2022-12-20T00:52:45;101300.94;;;9.21;70.56
48614;BME280;34408;51.426;5.444;2022-12-20T00:55:13;101311.69;;;9.21;70.39
48614;BME280;34408;51.426;5.444;2022-12-20T00:57:42;101310.66;;;9.22;70.43
48614;BME280;34408;51.426;5.444;2022-12-20T01:00:10;101317.03;;;9.21;70.43
48614;BME280;34408;51.426;5.444;2022-12-20T01:02:38;101306.31;;;9.21;69.85
48614;BME280;34408;51.426;5.444;2022-12-20T01:05:07;101306.31;;;9.21;70.08
48614;BME280;34408;51.426;5.444;2022-12-20T01:07:34;101305.47;;;9.20;70.04
48614;BME280;34408;51.426;5.444;2022-12-20T01:10:02;101310.84;;;9.20;69.94
48614;BME280;34408;51.426;5.444;2022-12-20T01:12:30;101323.22;;;9.21;70.09
48614;BME280;34408;51.426;5.444;2022-12-20T01:14:59;101330.03;;;9.24;69.89
48614;BME280;34408;51.426;5.444;2022-12-20T01:17:27;101325.72;;;9.23;69.94
48614;BME280;34408;51.426;5.444;2022-12-20T01:19:55;101320.34;;;9.23;70.15
48614;BME280;34408;51.426;5.444;2022-12-20T01:22:22;101310.25;;;9.25;70.49
48614;BME280;34408;51.426;5.444;2022-12-20T01:24:50;101299.50;;;9.25;69.91
48614;BME280;34408;51.426;5.444;2022-12-20T01:27:18;101325.50;;;9.24;70.55
48614;BME280;34408;51.426;5.444;2022-12-20T01:29:46;101314.97;;;9.23;70.43
48614;BME280;34408;51.426;5.444;2022-12-20T01:32:15;101329.22;;;9.23;70.29
48614;BME280;34408;51.426;5.444;2022-12-20T01:34:43;101323.03;;;9.23;70.52
48614;BME280;34408;51.426;5.444;2022-12-20T01:37:10;101314.97;;;9.23;71.09
48614;BME280;34408;51.426;5.444;2022-12-20T01:39:38;101306.09;;;9.22;71.09
48614;BME280;34408;51.426;5.444;2022-12-20T01:42:09;101309.63;;;9.23;70.88
48614;BME280;34408;51.426;5.444;2022-12-20T01:44:53;101292.88;;;9.14;71.20
48614;BME280;34408;51.426;5.444;2022-12-20T01:47:24;101293.53;;;9.23;70.79
48614;BME280;34408;51.426;5.444;2022-12-20T01:49:56;101291.66;;;9.23;70.39
48614;BME280;34408;51.426;5.444;2022-12-20T01:52:29;101277.03;;;9.26;71.00
48614;BME280;34408;51.426;5.444;2022-12-20T01:55:06;101266.31;;;9.26;70.81
48614;BME280;34408;51.426;5.444;2022-12-20T01:57:38;101269.81;;;9.26;71.39
48614;BME280;34408;51.426;5.444;2022-12-20T02:00:10;101272.50;;;9.26;71.36
48614;BME280;34408;51.426;5.444;2022-12-20T02:02:39;101263.81;;;9.24;70.72
48614;BME280;34408;51.426;5.444;2022-12-20T02:05:08;101266.09;;;9.27;71.42
48614;BME280;34408;51.426;5.444;2022-12-20T02:07:37;101274.75;;;9.23;71.12
48614;BME280;34408;51.426;5.444;2022-12-20T02:10:06;101283.03;;;9.28;71.25
48614;BME280;34408;51.426;5.444;2022-12-20T02:12:39;101275.78;;;9.28;71.12
48614;BME280;34408;51.426;5.444;2022-12-20T02:15:20;101271.25;;;9.29;71.63
48614;BME280;34408;51.426;5.444;2022-12-20T02:18:05;101268.59;;;9.29;71.62
48614;BME280;34408;51.426;5.444;2022-12-20T02:20:47;101256.00;;;9.29;70.98
48614;BME280;34408;51.426;5.444;2022-12-20T02:26:30;101241.75;;;9.29;71.42
48614;BME280;34408;51.426;5.444;2022-12-20T02:29:19;101247.13;;;9.29;71.28
48614;BME280;34408;51.426;5.444;2022-12-20T02:31:54;101242.59;;;9.29;71.49
48614;BME280;34408;51.426;5.444;2022-12-20T02:34:25;101240.94;;;9.28;72.04
48614;BME280;34408;51.426;5.444;2022-12-20T02:36:54;101236.41;;;9.29;71.89
48614;BME280;34408;51.426;5.444;2022-12-20T02:39:25;101237.22;;;9.29;71.62
48614;BME280;34408;51.426;5.444;2022-12-20T02:41:56;101233.31;;;9.32;71.66
48614;BME280;34408;51.426;5.444;2022-12-20T02:44:27;101221.75;;;9.31;71.65
48614;BME280;34408;51.426;5.444;2022-12-20T02:47:28;101227.13;;;9.31;71.74
48614;BME280;34408;51.426;5.444;2022-12-20T02:49:59;101219.47;;;9.35;72.33
48614;BME280;34408;51.426;5.444;2022-12-20T02:52:29;101221.13;;;9.36;72.19
48614;BME280;34408;51.426;5.444;2022-12-20T02:54:59;101214.53;;;9.32;72.19
48614;BME280;34408;51.426;5.444;2022-12-20T02:57:32;101212.88;;;9.37;72.31
48614;BME280;34408;51.426;5.444;2022-12-20T03:00:05;101212.06;;;9.37;72.37
48614;BME280;34408;51.426;5.444;2022-12-20T03:02:36;101221.13;;;9.36;72.62
48614;BME280;34408;51.426;5.444;2022-12-20T03:05:21;101228.16;;;9.37;72.56
48614;BME280;34408;51.426;5.444;2022-12-20T03:07:50;101223.59;;;9.31;71.87
48614;BME280;34408;51.426;5.444;2022-12-20T03:10:19;101219.28;;;9.36;72.24
48614;BME280;34408;51.426;5.444;2022-12-20T03:12:47;101216.59;;;9.36;72.42
48614;BME280;34408;51.426;5.444;2022-12-20T03:15:15;101222.78;;;9.37;72.37
48614;BME280;34408;51.426;5.444;2022-12-20T03:17:44;101221.13;;;9.36;72.64
48614;BME280;34408;51.426;5.444;2022-12-20T03:20:12;101226.50;;;9.36;72.67
48614;BME280;34408;51.426;5.444;2022-12-20T03:22:40;101208.75;;;9.35;72.13
48614;BME280;34408;51.426;5.444;2022-12-20T03:25:08;101204.22;;;9.35;72.43
48614;BME280;34408;51.426;5.444;2022-12-20T03:27:35;101205.88;;;9.36;71.97
48614;BME280;34408;51.426;5.444;2022-12-20T03:30:05;101216.59;;;9.36;71.70
48614;BME280;34408;51.426;5.444;2022-12-20T03:32:33;101207.72;;;9.36;72.52
48614;BME280;34408;51.426;5.444;2022-12-20T03:35:03;101217.44;;;9.37;72.38
48614;BME280;34408;51.426;5.444;2022-12-20T03:37:31;101217.44;;;9.37;72.02
48614;BME280;34408;51.426;5.444;2022-12-20T03:39:58;101206.06;;;9.35;72.00
48614;BME280;34408;51.426;5.444;2022-12-20T03:42:26;101222.59;;;9.38;71.80
48614;BME280;34408;51.426;5.444;2022-12-20T03:44:54;101225.06;;;9.40;71.90
48614;BME280;34408;51.426;5.444;2022-12-20T03:47:22;101224.03;;;9.41;72.22
48614;BME280;34408;51.426;5.444;2022-12-20T03:49:49;101223.22;;;9.40;71.99
48614;BME280;34408;51.426;5.444;2022-12-20T03:52:19;101217.00;;;9.40;72.08
48614;BME280;34408;51.426;5.444;2022-12-20T03:54:46;101211.22;;;9.36;71.72
48614;BME280;34408;51.426;5.444;2022-12-20T03:57:14;101213.09;;;9.36;72.36
48614;BME280;34408;51.426;5.444;2022-12-20T03:59:42;101220.94;;;9.44;72.10
48614;BME280;34408;51.426;5.444;2022-12-20T04:02:10;101225.28;;;9.45;72.33
48614;BME280;34408;51.426;5.444;2022-12-20T04:04:38;101208.16;;;9.46;72.23
48614;BME280;34408;51.426;5.444;2022-12-20T04:07:05;101206.50;;;9.45;72.05
48614;BME280;34408;51.426;5.444;2022-12-20T04:09:35;101208.16;;;9.46;72.03
48614;BME280;34408;51.426;5.444;2022-12-20T04:12:02;101201.97;;;9.45;72.22
48614;BME280;34408;51.426;5.444;2022-12-20T04:14:30;101208.16;;;9.46;72.36
48614;BME280;34408;51.426;5.444;2022-12-20T04:16:58;101209.78;;;9.47;72.56
48614;BME280;34408;51.426;5.444;2022-12-20T04:19:26;101205.25;;;9.48;72.53
48614;BME280;34408;51.426;5.444;2022-12-20T04:21:53;101205.25;;;9.48;71.99
48614;BME280;34408;51.426;5.444;2022-12-20T04:24:31;101199.91;;;9.48;72.27
48614;BME280;34408;51.426;5.444;2022-12-20T04:27:00;101198.03;;;9.48;72.12
48614;BME280;34408;51.426;5.444;2022-12-20T04:29:28;101201.53;;;9.49;72.79
48614;BME280;34408;51.426;5.444;2022-12-20T04:31:55;101198.03;;;9.48;72.82
48614;BME280;34408;51.426;5.444;2022-12-20T04:34:23;101197.00;;;9.49;72.56
48614;BME280;34408;51.426;5.444;2022-12-20T04:36:51;101193.50;;;9.49;72.27
48614;BME280;34408;51.426;5.444;2022-12-20T04:39:19;101185.25;;;9.50;72.66
48614;BME280;34408;51.426;5.444;2022-12-20T04:41:46;101190.41;;;9.52;72.93
48614;BME280;34408;51.426;5.444;2022-12-20T04:44:16;101183.38;;;9.51;72.30
48614;BME280;34408;51.426;5.444;2022-12-20T04:46:43;101191.44;;;9.51;72.70
48614;BME280;34408;51.426;5.444;2022-12-20T04:49:11;101194.94;;;9.51;72.89
48614;BME280;34408;51.426;5.444;2022-12-20T04:51:39;101181.53;;;9.51;72.30
48614;BME280;34408;51.426;5.444;2022-12-20T04:54:07;101186.06;;;9.51;72.61
48614;BME280;34408;51.426;5.444;2022-12-20T04:56:33;101183.38;;;9.51;72.18
48614;BME280;34408;51.426;5.444;2022-12-20T04:59:01;101177.19;;;9.50;72.35
48614;BME280;34408;51.426;5.444;2022-12-20T05:01:30;101178.84;;;9.51;72.45
48614;BME280;34408;51.426;5.444;2022-12-20T05:03:58;101178.84;;;9.51;72.38
48614;BME280;34408;51.426;5.444;2022-12-20T05:06:26;101176.97;;;9.52;72.55
48614;BME280;34408;51.426;5.444;2022-12-20T05:08:54;101169.75;;;9.52;72.39
48614;BME280;34408;51.426;5.444;2022-12-20T05:11:22;101166.47;;;9.50;72.90
48614;BME280;34408;51.426;5.444;2022-12-20T05:13:49;101160.88;;;9.52;72.65
48614;BME280;34408;51.426;5.444;2022-12-20T05:16:17;101162.75;;;9.51;72.38
48614;BME280;34408;51.426;5.444;2022-12-20T05:18:46;101168.13;;;9.51;72.37
48614;BME280;34408;51.426;5.444;2022-12-20T05:21:15;101158.22;;;9.52;72.72
48614;BME280;34408;51.426;5.444;2022-12-20T05:24:00;101146.44;;;9.53;72.79
48614;BME280;34408;51.426;5.444;2022-12-20T05:26:45;101151.59;;;9.54;72.63
48614;BME280;34408;51.426;5.444;2022-12-20T05:29:13;101143.56;;;9.54;72.60
48614;BME280;34408;51.426;5.444;2022-12-20T05:31:42;101147.06;;;9.55;72.51
48614;BME280;34408;51.426;5.444;2022-12-20T05:34:11;101148.72;;;9.56;72.97
48614;BME280;34408;51.426;5.444;2022-12-20T05:36:39;101143.56;;;9.54;73.11
48614;BME280;34408;51.426;5.444;2022-12-20T05:39:06;101135.50;;;9.54;73.04
48614;BME280;34408;51.426;5.444;2022-12-20T05:41:34;101136.31;;;9.55;73.02
48614;BME280;34408;51.426;5.444;2022-12-20T05:44:02;101126.63;;;9.54;72.84
48614;BME280;34408;51.426;5.444;2022-12-20T05:46:30;101132.81;;;9.54;73.17
48614;BME280;34408;51.426;5.444;2022-12-20T05:48:57;101133.66;;;9.55;72.81
48614;BME280;34408;51.426;5.444;2022-12-20T05:51:26;101133.44;;;9.56;72.50
48614;BME280;34408;51.426;5.444;2022-12-20T05:53:54;101134.47;;;9.55;72.47
48614;BME280;34408;51.426;5.444;2022-12-20T05:56:22;101130.75;;;9.56;72.36
48614;BME280;34408;51.426;5.444;2022-12-20T05:58:50;101116.31;;;9.57;72.75
48614;BME280;34408;51.426;5.444;2022-12-20T06:01:17;101115.28;;;9.58;72.48
48614;BME280;34408;51.426;5.444;2022-12-20T06:03:45;101114.44;;;9.58;72.79
48614;BME280;34408;51.426;5.444;2022-12-20T06:06:13;101107.00;;;9.60;72.61
48614;BME280;34408;51.426;5.444;2022-12-20T06:08:42;101094.63;;;9.59;72.54
48614;BME280;34408;51.426;5.444;2022-12-20T06:11:10;101092.34;;;9.62;72.26
48614;BME280;34408;51.426;5.444;2022-12-20T06:13:38;101081.59;;;9.69;72.44
48614;BME280;34408;51.426;5.444;2022-12-20T06:16:06;101079.53;;;9.71;72.10
48614;BME280;34408;51.426;5.444;2022-12-20T06:18:34;101076.84;;;9.71;72.18
48614;BME280;34408;51.426;5.444;2022-12-20T06:21:02;101084.91;;;9.71;71.96
48614;BME280;34408;51.426;5.444;2022-12-20T06:23:29;101085.09;;;9.76;71.95
48614;BME280;34408;51.426;5.444;2022-12-20T06:25:59;101082.00;;;9.79;72.17
48614;BME280;34408;51.426;5.444;2022-12-20T06:28:26;101075.56;;;9.87;71.99
48614;BME280;34408;51.426;5.444;2022-12-20T06:30:55;101079.72;;;9.83;71.80
48614;BME280;34408;51.426;5.444;2022-12-20T06:33:24;101081.97;;;9.86;71.99
48614;BME280;34408;51.426;5.444;2022-12-20T06:35:52;101090.66;;;9.81;72.18
48614;BME280;34408;51.426;5.444;2022-12-20T06:38:19;101095.19;;;9.81;71.99
48614;BME280;34408;51.426;5.444;2022-12-20T06:40:47;101086.94;;;9.75;72.49
48614;BME280;34408;51.426;5.444;2022-12-20T06:43:16;101080.34;;;9.71;72.70
48614;BME280;34408;51.426;5.444;2022-12-20T06:45:44;101076.03;;;9.70;72.68
48614;BME280;34408;51.426;5.444;2022-12-20T06:48:12;101070.03;;;9.68;72.51
48614;BME280;34408;51.426;5.444;2022-12-20T06:50:39;101073.34;;;9.70;72.89
48614;BME280;34408;51.426;5.444;2022-12-20T06:53:07;101058.72;;;9.60;72.12
48614;BME280;34408;51.426;5.444;2022-12-20T06:55:35;101079.75;;;9.69;72.21
48614;BME280;34408;51.426;5.444;2022-12-20T06:58:03;101080.78;;;9.68;72.94
48614;BME280;34408;51.426;5.444;2022-12-20T07:00:32;101091.72;;;9.67;72.82
48614;BME280;34408;51.426;5.444;2022-12-20T07:03:00;101087.38;;;9.66;72.56
48614;BME280;34408;51.426;5.444;2022-12-20T07:05:28;101097.28;;;9.65;72.63
48614;BME280;34408;51.426;5.444;2022-12-20T07:07:55;101090.28;;;9.64;72.59
48614;BME280;34408;51.426;5.444;2022-12-20T07:10:23;101084.91;;;9.64;72.64
48614;BME280;34408;51.426;5.444;2022-12-20T07:12:51;101076.88;;;9.64;72.74
48614;BME280;34408;51.426;5.444;2022-12-20T07:15:19;101092.13;;;9.64;72.46
48614;BME280;34408;51.426;5.444;2022-12-20T07:17:49;101103.69;;;9.64;72.03
48614;BME280;34408;51.426;5.444;2022-12-20T07:20:18;101097.50;;;9.64;72.60
48614;BME280;34408;51.426;5.444;2022-12-20T07:22:46;101097.50;;;9.64;72.55
48614;BME280;34408;51.426;5.444;2022-12-20T07:25:14;101091.31;;;9.63;72.34
48614;BME280;34408;51.426;5.444;2022-12-20T07:27:42;101078.13;;;9.55;72.19
48614;BME280;34408;51.426;5.444;2022-12-20T07:30:13;101087.81;;;9.63;72.09
48614;BME280;34408;51.426;5.444;2022-12-20T07:32:40;101096.69;;;9.63;72.12
48614;BME280;34408;51.426;5.444;2022-12-20T07:35:10;101094.81;;;9.64;71.99
48614;BME280;34408;51.426;5.444;2022-12-20T07:37:38;101095.84;;;9.63;72.42
48614;BME280;34408;51.426;5.444;2022-12-20T07:40:07;101101.00;;;9.64;72.54
48614;BME280;34408;51.426;5.444;2022-12-20T07:42:35;101102.88;;;9.64;72.08
48614;BME280;34408;51.426;5.444;2022-12-20T07:45:13;101094.22;;;9.55;72.68
48614;BME280;34408;51.426;5.444;2022-12-20T07:47:41;101103.69;;;9.64;72.55
48614;BME280;34408;51.426;5.444;2022-12-20T07:50:10;101110.72;;;9.65;72.07
48614;BME280;34408;51.426;5.444;2022-12-20T07:52:39;101109.91;;;9.65;72.48
48614;BME280;34408;51.426;5.444;2022-12-20T07:55:09;101110.94;;;9.64;71.80
48614;BME280;34408;51.426;5.444;2022-12-20T07:57:40;101107.22;;;9.65;72.23
48614;BME280;34408;51.426;5.444;2022-12-20T08:00:10;101117.72;;;9.66;71.90
48614;BME280;34408;51.426;5.444;2022-12-20T08:02:40;101106.81;;;9.61;72.08
48614;BME280;34408;51.426;5.444;2022-12-20T08:05:11;101111.13;;;9.69;71.87
48614;BME280;34408;51.426;5.444;2022-12-20T08:07:40;101117.53;;;9.68;71.89
48614;BME280;34408;51.426;5.444;2022-12-20T08:10:10;101114.00;;;9.67;72.18
48614;BME280;34408;51.426;5.444;2022-12-20T08:12:41;101124.53;;;9.69;71.82
48614;BME280;34408;51.426;5.444;2022-12-20T08:15:11;101104.94;;;9.62;72.28
48614;BME280;34408;51.426;5.444;2022-12-20T08:17:38;101118.13;;;9.70;71.73
48614;BME280;34408;51.426;5.444;2022-12-20T08:20:07;101118.97;;;9.70;71.75
48614;BME280;34408;51.426;5.444;2022-12-20T08:22:36;101121.66;;;9.70;71.61
48614;BME280;34408;51.426;5.444;2022-12-20T08:25:05;101113.81;;;9.69;71.74
48614;BME280;34408;51.426;5.444;2022-12-20T08:27:32;101112.78;;;9.70;71.81
48614;BME280;34408;51.426;5.444;2022-12-20T08:30:00;101107.63;;;9.68;72.01
48614;BME280;34408;51.426;5.444;2022-12-20T08:32:28;101108.22;;;9.70;72.01
48614;BME280;34408;51.426;5.444;2022-12-20T08:34:56;101110.09;;;9.70;72.23
48614;BME280;34408;51.426;5.444;2022-12-20T08:37:24;101104.31;;;9.73;72.75
48614;BME280;34408;51.426;5.444;2022-12-20T08:39:53;101102.66;;;9.72;72.52
48614;BME280;34408;51.426;5.444;2022-12-20T08:42:21;101109.47;;;9.74;72.82
48614;BME280;34408;51.426;5.444;2022-12-20T08:44:48;101098.72;;;9.74;72.33
48614;BME280;34408;51.426;5.444;2022-12-20T08:47:16;101104.91;;;9.75;72.37
48614;BME280;34408;51.426;5.444;2022-12-20T08:49:44;101095.59;;;9.84;72.08
48614;BME280;34408;51.426;5.444;2022-12-20T08:52:13;101093.31;;;9.94;71.94
48614;BME280;34408;51.426;5.444;2022-12-20T08:54:41;101092.63;;;10.12;71.15
48614;BME280;34408;51.426;5.444;2022-12-20T08:57:10;101099.41;;;10.28;70.75
48614;BME280;34408;51.426;5.444;2022-12-20T08:59:38;101094.53;;;10.43;70.47
48614;BME280;34408;51.426;5.444;2022-12-20T09:02:06;101080.38;;;10.61;69.88
48614;BME280;34408;51.426;5.444;2022-12-20T09:04:34;101083.38;;;10.77;69.06
48614;BME280;34408;51.426;5.444;2022-12-20T09:07:02;101079.34;;;10.93;68.85
48614;BME280;34408;51.426;5.444;2022-12-20T09:09:30;101073.41;;;11.09;68.22
48614;BME280;34408;51.426;5.444;2022-12-20T09:11:57;101065.44;;;11.21;67.78
48614;BME280;34408;51.426;5.444;2022-12-20T09:14:26;101061.81;;;11.34;67.63
48614;BME280;34408;51.426;5.444;2022-12-20T09:16:54;101072.06;;;11.44;67.11
48614;BME280;34408;51.426;5.444;2022-12-20T09:19:22;101067.91;;;11.48;66.95
48614;BME280;34408;51.426;5.444;2022-12-20T09:21:49;101062.75;;;11.46;66.60
48614;BME280;34408;51.426;5.444;2022-12-20T09:24:18;101068.22;;;11.58;66.86
48614;BME280;34408;51.426;5.444;2022-12-20T09:26:46;101071.06;;;11.63;66.81
48614;BME280;34408;51.426;5.444;2022-12-20T09:29:17;101072.69;;;11.64;66.51
48614;BME280;34408;51.426;5.444;2022-12-20T09:31:56;101077.03;;;11.65;66.50
48614;BME280;34408;51.426;5.444;2022-12-20T09:34:24;101070.38;;;11.67;66.55
48614;BME280;34408;51.426;5.444;2022-12-20T09:36:52;101072.84;;;11.69;66.77
48614;BME280;34408;51.426;5.444;2022-12-20T09:39:20;101067.84;;;11.72;66.50
48614;BME280;34408;51.426;5.444;2022-12-20T09:41:48;101069.28;;;11.75;66.82
48614;BME280;34408;51.426;5.444;2022-12-20T09:44:20;101068.22;;;11.76;66.77
48614;BME280;34408;51.426;5.444;2022-12-20T09:46:53;101077.97;;;11.77;66.29
48614;BME280;34408;51.426;5.444;2022-12-20T09:49:27;101082.09;;;11.80;66.23
48614;BME280;34408;51.426;5.444;2022-12-20T09:55:15;101067.28;;;11.89;66.10
48614;BME280;34408;51.426;5.444;2022-12-20T09:57:53;101057.94;;;11.91;66.02
48614;BME280;34408;51.426;5.444;2022-12-20T10:00:24;101061.44;;;11.92;66.10
48614;BME280;34408;51.426;5.444;2022-12-20T10:02:52;101062.56;;;11.84;66.41
48614;BME280;34408;51.426;5.444;2022-12-20T10:05:37;101069.94;;;11.70;66.95
48614;BME280;34408;51.426;5.444;2022-12-20T10:08:13;101059.16;;;11.52;67.39
48614;BME280;34408;51.426;5.444;2022-12-20T10:10:52;101061.81;;;11.34;68.03
48614;BME280;34408;51.426;5.444;2022-12-20T10:13:34;101064.63;;;11.21;68.58
48614;BME280;34408;51.426;5.444;2022-12-20T10:16:16;101059.97;;;11.09;68.98
48614;BME280;34408;51.426;5.444;2022-12-20T10:18:56;101059.41;;;11.01;69.41
48614;BME280;34408;51.426;5.444;2022-12-20T10:21:39;101063.19;;;10.93;69.69
48614;BME280;34408;51.426;5.444;2022-12-20T10:24:13;101060.56;;;10.87;69.73
48614;BME280;34408;51.426;5.444;2022-12-20T10:26:43;101064.94;;;10.81;70.78
48614;BME280;34408;51.426;5.444;2022-12-20T10:29:12;101067.81;;;10.86;70.28
48614;BME280;34408;51.426;5.444;2022-12-20T10:31:39;101067.94;;;10.98;69.93
48614;BME280;34408;51.426;5.444;2022-12-20T10:34:08;101072.75;;;11.14;69.43
48614;BME280;34408;51.426;5.444;2022-12-20T10:36:37;101064.13;;;11.30;69.01
48614;BME280;34408;51.426;5.444;2022-12-20T10:39:06;101056.53;;;11.46;68.77
48614;BME280;34408;51.426;5.444;2022-12-20T10:41:47;101054.09;;;11.62;67.97
48614;BME280;34408;51.426;5.444;2022-12-20T10:44:18;101047.94;;;11.73;67.81
48614;BME280;34408;51.426;5.444;2022-12-20T10:46:49;101050.75;;;11.85;67.35
48614;BME280;34408;51.426;5.444;2022-12-20T10:49:27;101049.75;;;11.98;66.55
48614;BME280;34408;51.426;5.444;2022-12-20T10:52:00;101044.66;;;12.08;66.50
48614;BME280;34408;51.426;5.444;2022-12-20T10:54:32;101037.28;;;12.15;66.48
48614;BME280;34408;51.426;5.444;2022-12-20T10:57:02;101051.34;;;12.17;66.12
48614;BME280;34408;51.426;5.444;2022-12-20T10:59:32;101044.91;;;12.18;66.30
48614;BME280;34408;51.426;5.444;2022-12-20T11:02:08;101043.88;;;12.19;66.26
48614;BME280;34408;51.426;5.444;2022-12-20T11:04:57;101042.59;;;12.22;66.21
48614;BME280;34408;51.426;5.444;2022-12-20T11:07:29;101046.94;;;12.23;66.31
48614;BME280;34408;51.426;5.444;2022-12-20T11:09:59;101044.69;;;12.20;66.23
48614;BME280;34408;51.426;5.444;2022-12-20T11:12:28;101047.97;;;12.10;66.60
48614;BME280;34408;51.426;5.444;2022-12-20T11:15:08;101037.56;;;11.95;67.13
48614;BME280;34408;51.426;5.444;2022-12-20T11:17:37;101036.13;;;11.74;67.61
48614;BME280;34408;51.426;5.444;2022-12-20T11:20:21;101033.44;;;11.56;68.56
48614;BME280;34408;51.426;5.444;2022-12-20T11:23:01;101033.56;;;11.43;68.83
48614;BME280;34408;51.426;5.444;2022-12-20T11:25:47;101031.84;;;11.30;69.39
48614;BME280;34408;51.426;5.444;2022-12-20T11:28:30;101034.59;;;11.24;69.73
48614;BME280;34408;51.426;5.444;2022-12-20T11:31:10;101032.41;;;11.14;70.16
48614;BME280;34408;51.426;5.444;2022-12-20T11:33:55;101027.69;;;11.09;70.45
48614;BME280;34408;51.426;5.444;2022-12-20T11:36:35;101022.97;;;11.05;70.49
48614;BME280;34408;51.426;5.444;2022-12-20T11:39:12;101018.25;;;11.00;70.75
48614;BME280;34408;51.426;5.444;2022-12-20T11:41:45;101025.13;;;10.96;70.98
48614;BME280;34408;51.426;5.444;2022-12-20T11:44:22;101016.88;;;10.91;71.02
48614;BME280;34408;51.426;5.444;2022-12-20T11:47:14;101018.38;;;10.87;71.29
48614;BME280;34408;51.426;5.444;2022-12-20T11:49:55;101009.69;;;10.85;71.27
48614;BME280;34408;51.426;5.444;2022-12-20T11:52:34;101002.91;;;10.83;71.34
48614;BME280;34408;51.426;5.444;2022-12-20T11:55:14;101006.84;;;10.80;71.65
48614;BME280;34408;51.426;5.444;2022-12-20T11:57:51;101004.38;;;10.79;71.64
48614;BME280;34408;51.426;5.444;2022-12-20T12:00:54;101008.31;;;10.76;71.78
48614;BME280;34408;51.426;5.444;2022-12-20T12:03:29;100991.59;;;10.74;71.80
48614;BME280;34408;51.426;5.444;2022-12-20T12:05:59;100995.31;;;10.73;72.22
48614;BME280;34408;51.426;5.444;2022-12-20T12:08:35;101005.47;;;10.71;72.09
48614;BME280;34408;51.426;5.444;2022-12-20T12:11:11;100991.22;;;10.70;72.26
48614;BME280;34408;51.426;5.444;2022-12-20T12:14:02;100996.03;;;10.87;72.02
48614;BME280;34408;51.426;5.444;2022-12-20T12:16:34;100997.13;;;11.04;71.22
48614;BME280;34408;51.426;5.444;2022-12-20T12:19:07;100995.50;;;11.21;70.54
48614;BME280;34408;51.426;5.444;2022-12-20T12:21:38;100999.25;;;11.38;70.11
48614;BME280;34408;51.426;5.444;2022-12-20T12:24:15;100988.72;;;11.55;69.39
48614;BME280;34408;51.426;5.444;2022-12-20T12:26:47;100991.63;;;11.72;69.06
48614;BME280;34408;51.426;5.444;2022-12-20T12:29:15;100990.69;;;11.85;68.58
48614;BME280;34408;51.426;5.444;2022-12-20T12:31:48;100992.16;;;11.99;68.37
48614;BME280;34408;51.426;5.444;2022-12-20T12:34:29;100992.78;;;12.13;67.56
48614;BME280;34408;51.426;5.444;2022-12-20T12:37:21;100991.16;;;12.23;66.91
48614;BME280;34408;51.426;5.444;2022-12-20T12:43:04;100996.22;;;12.31;66.90
48614;BME280;34408;51.426;5.444;2022-12-20T12:45:40;100988.69;;;12.22;67.14
48614;BME280;34408;51.426;5.444;2022-12-20T12:48:13;100989.28;;;12.12;67.63
48614;BME280;34408;51.426;5.444;2022-12-20T12:50:45;100993.19;;;11.98;67.99
48614;BME280;34408;51.426;5.444;2022-12-20T12:53:16;100983.88;;;11.82;68.51
48614;BME280;34408;51.426;5.444;2022-12-20T12:55:45;100983.41;;;11.67;69.67
48614;BME280;34408;51.426;5.444;2022-12-20T12:58:32;100984.84;;;11.51;70.00
48614;BME280;34408;51.426;5.444;2022-12-20T13:01:02;100984.31;;;11.43;70.22
48614;BME280;34408;51.426;5.444;2022-12-20T13:03:36;100987.44;;;11.39;70.38
48614;BME280;34408;51.426;5.444;2022-12-20T13:06:49;100978.09;;;11.42;70.62
48614;BME280;34408;51.426;5.444;2022-12-20T13:09:35;100974.91;;;11.33;70.66
48614;BME280;34408;51.426;5.444;2022-12-20T13:15:46;100971.44;;;11.26;71.28
48614;BME280;34408;51.426;5.444;2022-12-20T13:18:22;100976.91;;;11.20;71.39
48614;BME280;34408;51.426;5.444;2022-12-20T13:27:26;100980.16;;;11.03;71.63
48614;BME280;34408;51.426;5.444;2022-12-20T13:38:58;100982.53;;;10.93;72.37
48614;BME280;34408;51.426;5.444;2022-12-20T13:41:33;100980.06;;;10.92;72.18
48614;BME280;34408;51.426;5.444;2022-12-20T13:44:16;100980.50;;;10.89;72.33
48614;BME280;34408;51.426;5.444;2022-12-20T13:46:48;100975.34;;;10.87;72.24